createdAt,value
2018-12-09T00:01:43.124Z,44.30
2018-12-09T00:04:11.563Z,42.93
2018-12-09T00:06:39.970Z,38.10
2018-12-09T00:09:08.600Z,45.53
2018-12-09T00:11:37.110Z,45.70
2018-12-09T00:14:05.556Z,37.30
2018-12-09T00:16:34.404Z,38.77
2018-12-09T00:19:02.995Z,32.57
2018-12-09T00:21:31.550Z,31.70
2018-12-09T00:23:59.994Z,35.93
2018-12-09T00:26:28.396Z,35.17
2018-12-09T00:28:56.812Z,29.40
2018-12-09T00:31:25.245Z,28.77
2018-12-09T00:33:53.648Z,26.57
2018-12-09T00:36:22.040Z,23.40
2018-12-09T00:38:50.476Z,26.50
2018-12-09T00:41:18.891Z,28.10
2018-12-09T00:43:47.297Z,22.50
2018-12-09T00:46:15.687Z,27.10
2018-12-09T00:48:44.100Z,28.23
2018-12-09T00:51:12.615Z,28.73
2018-12-09T00:53:41.041Z,23.07
2018-12-09T00:56:09.440Z,20.83
2018-12-09T00:58:37.845Z,27.80
2018-12-09T01:01:06.242Z,27.27
2018-12-09T01:03:34.654Z,29.13
2018-12-09T01:06:03.470Z,33.37
2018-12-09T01:08:31.884Z,27.07
2018-12-09T01:11:00.278Z,33.33
2018-12-09T01:13:28.695Z,37.17
2018-12-09T01:15:57.436Z,27.27
2018-12-09T01:18:25.828Z,31.27
2018-12-09T01:20:54.209Z,35.03
2018-12-09T01:23:22.652Z,35.43
2018-12-09T01:25:51.036Z,34.10
2018-12-09T01:28:19.438Z,31.70
2018-12-09T01:30:47.858Z,30.90
2018-12-09T01:33:16.257Z,29.23
2018-12-09T01:35:44.714Z,31.23
2018-12-09T01:38:13.131Z,29.60
2018-12-09T01:40:46.972Z,30.10
2018-12-09T01:43:15.400Z,30.73
2018-12-09T01:45:43.816Z,27.83
2018-12-09T01:48:12.215Z,38.50
2018-12-09T01:50:40.603Z,30.47
2018-12-09T01:53:20.841Z,31.27
2018-12-09T01:55:49.254Z,34.33
2018-12-09T01:58:17.653Z,32.53
2018-12-09T02:00:46.167Z,27.33
2018-12-09T02:03:14.988Z,35.10
2018-12-09T02:05:43.375Z,31.83
2018-12-09T02:08:11.899Z,25.57
2018-12-09T02:10:40.408Z,23.73
2018-12-09T02:13:08.917Z,27.00
2018-12-09T02:15:37.445Z,29.87
2018-12-09T02:18:05.876Z,28.60
2018-12-09T02:20:34.319Z,22.47
2018-12-09T02:23:02.701Z,27.93
2018-12-09T02:25:31.107Z,31.60
2018-12-09T02:27:59.555Z,32.20
2018-12-09T02:30:27.981Z,27.87
2018-12-09T02:32:56.379Z,26.30
2018-12-09T02:35:24.792Z,27.67
2018-12-09T02:37:53.235Z,25.43
2018-12-09T02:40:21.647Z,27.70
2018-12-09T02:42:50.059Z,29.37
2018-12-09T02:45:18.494Z,25.47
2018-12-09T02:47:46.888Z,19.40
2018-12-09T02:50:15.303Z,23.40
2018-12-09T02:52:43.693Z,20.67
2018-12-09T02:55:12.111Z,30.53
2018-12-09T02:57:40.522Z,26.23
2018-12-09T03:00:09.386Z,24.03
2018-12-09T03:02:44.607Z,24.73
2018-12-09T03:05:13.755Z,26.87
2018-12-09T03:07:42.163Z,25.00
2018-12-09T03:10:10.676Z,23.53
2018-12-09T03:12:39.076Z,30.27
2018-12-09T03:15:07.706Z,27.07
2018-12-09T03:17:36.125Z,26.17
2018-12-09T03:20:05.058Z,30.73
2018-12-09T03:22:33.535Z,24.80
2018-12-09T03:25:01.925Z,30.60
2018-12-09T03:27:30.331Z,34.67
2018-12-09T03:29:58.731Z,33.03
2018-12-09T03:32:27.147Z,33.97
2018-12-09T03:34:55.943Z,30.63
2018-12-09T03:37:24.338Z,29.53
2018-12-09T03:39:52.747Z,29.00
2018-12-09T03:42:21.761Z,29.77
2018-12-09T03:44:50.168Z,19.57
2018-12-09T03:47:18.588Z,23.87
2018-12-09T03:49:46.996Z,28.03
2018-12-09T03:52:15.414Z,24.43
2018-12-09T03:54:43.813Z,27.00
2018-12-09T03:57:12.219Z,17.03
2018-12-09T03:59:40.609Z,22.37
2018-12-09T04:02:09.113Z,19.10
2018-12-09T04:04:37.530Z,26.17
2018-12-09T04:07:06.063Z,21.73
2018-12-09T04:09:34.479Z,23.97
2018-12-09T04:12:03.004Z,30.27
2018-12-09T04:14:31.421Z,24.77
2018-12-09T04:17:00.344Z,22.07
2018-12-09T04:19:28.954Z,29.83
2018-12-09T04:22:03.854Z,27.43
2018-12-09T04:24:32.263Z,28.80
2018-12-09T04:27:00.677Z,30.43
2018-12-09T04:29:29.072Z,24.53
2018-12-09T04:31:57.472Z,30.27
2018-12-09T04:34:25.933Z,35.00
2018-12-09T04:36:54.326Z,28.30
2018-12-09T04:39:23.135Z,27.63
2018-12-09T04:41:51.528Z,29.43
2018-12-09T04:44:19.912Z,28.40
2018-12-09T04:46:48.324Z,26.57
2018-12-09T04:49:16.751Z,29.07
2018-12-09T04:51:56.684Z,24.57
2018-12-09T04:54:26.221Z,23.93
2018-12-09T04:56:54.882Z,30.03
2018-12-09T04:59:24.649Z,26.27
2018-12-09T05:01:53.394Z,30.67
2018-12-09T05:04:21.789Z,23.70
2018-12-09T05:06:50.196Z,25.80
2018-12-09T05:09:18.580Z,41.57
2018-12-09T05:11:47.487Z,26.33
2018-12-09T05:14:15.896Z,25.93
2018-12-09T05:16:44.288Z,27.73
2018-12-09T05:19:12.704Z,25.23
2018-12-09T05:21:41.125Z,20.77
2018-12-09T05:24:09.845Z,28.17
2018-12-09T05:26:38.269Z,29.43
2018-12-09T05:29:06.732Z,24.23
2018-12-09T05:31:35.175Z,26.50
2018-12-09T05:34:03.578Z,25.40
2018-12-09T05:36:31.977Z,34.03
2018-12-09T05:39:00.367Z,23.10
2018-12-09T05:41:28.788Z,36.23
2018-12-09T05:43:57.178Z,33.23
2018-12-09T05:46:25.633Z,26.67
2018-12-09T05:48:54.088Z,34.00
2018-12-09T05:51:22.509Z,33.47
2018-12-09T05:53:50.919Z,28.97
2018-12-09T05:56:19.337Z,33.93
2018-12-09T05:58:47.831Z,29.93
2018-12-09T06:01:16.336Z,39.93
2018-12-09T06:03:44.787Z,28.90
2018-12-09T06:06:13.210Z,25.33
2018-12-09T06:08:41.665Z,25.30
2018-12-09T06:11:10.364Z,31.83
2018-12-09T06:13:38.801Z,28.57
2018-12-09T06:16:07.227Z,29.13
2018-12-09T06:18:35.648Z,29.80
2018-12-09T06:21:04.055Z,33.83
2018-12-09T06:23:32.907Z,28.67
2018-12-09T06:26:01.329Z,29.20
2018-12-09T06:28:29.769Z,22.70
2018-12-09T06:30:58.165Z,25.23
2018-12-09T06:33:26.577Z,24.07
2018-12-09T06:35:54.979Z,20.23
2018-12-09T06:38:23.516Z,22.73
2018-12-09T06:40:51.994Z,27.57
2018-12-09T06:43:20.390Z,27.00
2018-12-09T06:45:48.788Z,24.00
2018-12-09T06:48:17.227Z,24.00
2018-12-09T06:50:48.712Z,22.07
2018-12-09T06:53:17.173Z,21.90
2018-12-09T06:55:45.607Z,29.53
2018-12-09T06:58:14.057Z,26.63
2018-12-09T07:00:42.497Z,21.63
2018-12-09T07:03:10.912Z,22.67
2018-12-09T07:05:39.358Z,28.40
2018-12-09T07:08:07.756Z,34.93
2018-12-09T07:10:36.173Z,28.53
2018-12-09T07:13:04.717Z,32.47
2018-12-09T07:15:33.147Z,29.17
2018-12-09T07:18:01.560Z,30.37
2018-12-09T07:20:29.981Z,29.40
2018-12-09T07:22:58.405Z,30.80
2018-12-09T07:25:26.806Z,23.67
2018-12-09T07:27:55.239Z,26.93
2018-12-09T07:30:23.733Z,25.70
2018-12-09T07:32:52.209Z,28.57
2018-12-09T07:35:20.719Z,30.83
2018-12-09T07:37:49.274Z,28.83
2018-12-09T07:40:17.721Z,25.83
2018-12-09T07:42:46.147Z,29.47
2018-12-09T07:45:14.569Z,27.33
2018-12-09T07:47:43.045Z,28.87
2018-12-09T07:50:11.641Z,33.23
2018-12-09T07:52:40.044Z,24.53
2018-12-09T07:55:08.462Z,27.93
2018-12-09T07:57:36.868Z,25.90
2018-12-09T08:00:07.345Z,23.17
2018-12-09T08:02:35.743Z,28.50
2018-12-09T08:05:11.030Z,27.37
2018-12-09T08:07:39.443Z,22.07
2018-12-09T08:10:08.089Z,28.47
2018-12-09T08:12:36.508Z,33.03
2018-12-09T08:15:05.116Z,32.13
2018-12-09T08:17:33.674Z,29.23
2018-12-09T08:20:02.148Z,28.13
2018-12-09T08:22:30.576Z,27.30
2018-12-09T08:24:59.010Z,26.07
2018-12-09T08:27:27.440Z,26.03
2018-12-09T08:29:55.873Z,33.00
2018-12-09T08:32:24.314Z,40.53
2018-12-09T08:34:52.756Z,28.53
2018-12-09T08:37:21.203Z,37.50
2018-12-09T08:39:49.626Z,30.60
2018-12-09T08:42:18.046Z,24.50
2018-12-09T08:44:46.490Z,23.63
2018-12-09T08:47:14.918Z,26.43
2018-12-09T08:49:43.335Z,28.83
2018-12-09T08:52:11.787Z,28.70
2018-12-09T08:54:40.207Z,30.30
2018-12-09T08:57:08.657Z,34.87
2018-12-09T08:59:37.062Z,25.13
2018-12-09T09:02:05.688Z,27.73
2018-12-09T09:04:34.122Z,37.97
2018-12-09T09:07:02.586Z,45.60
2018-12-09T09:09:31.016Z,28.17
2018-12-09T09:11:59.445Z,28.80
2018-12-09T09:14:27.830Z,24.03
2018-12-09T09:16:56.261Z,26.33
2018-12-09T09:19:24.702Z,21.63
2018-12-09T09:21:53.120Z,24.40
2018-12-09T09:24:21.565Z,25.73
2018-12-09T09:26:49.958Z,19.80
2018-12-09T09:29:18.418Z,13.93
2018-12-09T09:31:46.855Z,7.87
2018-12-09T09:34:15.269Z,8.77
2018-12-09T09:36:43.667Z,11.57
2018-12-09T09:39:12.081Z,7.73
2018-12-09T09:41:40.562Z,10.67
2018-12-09T09:44:08.980Z,15.53
2018-12-09T09:46:37.485Z,17.97
2018-12-09T09:49:05.980Z,21.43
2018-12-09T09:51:34.433Z,22.30
2018-12-09T09:54:02.898Z,19.80
2018-12-09T09:56:31.393Z,25.23
2018-12-09T09:58:59.844Z,20.10
2018-12-09T10:01:28.355Z,24.60
2018-12-09T10:03:57.394Z,23.90
2018-12-09T10:06:26.165Z,23.13
2018-12-09T10:08:54.570Z,27.40
2018-12-09T10:11:22.994Z,21.13
2018-12-09T10:13:51.441Z,24.63
2018-12-09T10:16:19.880Z,19.07
2018-12-09T10:18:48.303Z,21.13
2018-12-09T10:21:16.777Z,28.03
2018-12-09T10:23:45.385Z,18.73
2018-12-09T10:26:13.816Z,14.40
2018-12-09T10:28:42.221Z,25.23
2018-12-09T10:31:10.723Z,13.37
2018-12-09T10:33:39.151Z,17.00
2018-12-09T10:36:07.547Z,15.33
2018-12-09T10:38:35.955Z,13.93
2018-12-09T10:41:04.496Z,13.10
2018-12-09T10:43:33.005Z,10.20
2018-12-09T10:46:01.431Z,8.83
2018-12-09T10:48:29.855Z,9.53
2018-12-09T10:50:58.283Z,16.77
2018-12-09T10:53:26.796Z,9.23
2018-12-09T10:55:55.204Z,15.37
2018-12-09T10:58:23.699Z,17.23
2018-12-09T11:00:54.780Z,17.67
2018-12-09T11:03:23.280Z,15.80
2018-12-09T11:05:51.739Z,9.47
2018-12-09T11:08:20.156Z,11.03
2018-12-09T11:10:48.549Z,14.07
2018-12-09T11:13:16.979Z,16.87
2018-12-09T11:15:45.393Z,11.20
2018-12-09T11:18:13.812Z,9.23
2018-12-09T11:20:42.208Z,10.23
2018-12-09T11:23:10.606Z,9.97
2018-12-09T11:25:39.024Z,11.40
2018-12-09T11:28:07.440Z,9.53
2018-12-09T11:30:35.886Z,11.03
2018-12-09T11:33:04.288Z,11.00
2018-12-09T11:35:32.725Z,14.20
2018-12-09T11:38:01.167Z,16.30
2018-12-09T11:40:29.646Z,14.63
2018-12-09T11:42:58.059Z,11.97
2018-12-09T11:45:26.649Z,13.50
2018-12-09T11:47:55.275Z,7.83
2018-12-09T11:50:23.706Z,11.90
2018-12-09T11:52:52.116Z,7.87
2018-12-09T11:55:21.906Z,7.40
2018-12-09T11:57:50.330Z,8.57
2018-12-09T12:00:18.915Z,7.87
2018-12-09T12:02:47.323Z,11.93
2018-12-09T12:05:15.760Z,10.40
2018-12-09T12:07:44.266Z,6.97
2018-12-09T12:10:12.715Z,10.30
2018-12-09T12:12:41.118Z,6.67
2018-12-09T12:15:09.562Z,7.37
2018-12-09T12:17:38.021Z,5.97
2018-12-09T12:20:06.976Z,5.27
2018-12-09T12:22:35.404Z,8.83
2018-12-09T12:25:04.099Z,6.00
2018-12-09T12:27:32.512Z,6.80
2018-12-09T12:30:00.916Z,10.20
2018-12-09T12:32:29.390Z,8.30
2018-12-09T12:34:57.808Z,9.57
2018-12-09T12:37:26.465Z,6.80
2018-12-09T12:39:54.889Z,10.90
2018-12-09T12:42:23.418Z,10.80
2018-12-09T12:44:51.961Z,9.13
2018-12-09T12:47:20.582Z,15.93
2018-12-09T12:49:49.018Z,11.13
2018-12-09T12:52:17.573Z,13.73
2018-12-09T12:54:46.082Z,10.43
2018-12-09T12:57:14.490Z,11.60
2018-12-09T12:59:42.903Z,17.60
2018-12-09T13:02:11.436Z,14.80
2018-12-09T13:04:39.869Z,10.77
2018-12-09T13:07:08.307Z,10.07
2018-12-09T13:09:36.746Z,8.53
2018-12-09T13:12:05.393Z,11.03
2018-12-09T13:14:33.907Z,18.97
2018-12-09T13:17:02.343Z,9.47
2018-12-09T13:19:30.754Z,11.87
2018-12-09T13:21:59.173Z,6.27
2018-12-09T13:24:28.575Z,9.37
2018-12-09T13:26:57.069Z,9.13
2018-12-09T13:29:25.937Z,6.33
2018-12-09T13:31:54.590Z,7.93
2018-12-09T13:34:23.149Z,6.30
2018-12-09T13:36:51.572Z,5.03
2018-12-09T13:39:20.251Z,5.67
2018-12-09T13:41:48.685Z,7.67
2018-12-09T13:44:17.253Z,5.53
2018-12-09T13:46:45.673Z,5.80
2018-12-09T13:49:14.174Z,7.40
2018-12-09T13:51:43.164Z,7.23
2018-12-09T13:54:11.592Z,11.10
2018-12-09T13:56:40.017Z,7.53
2018-12-09T13:59:08.560Z,9.17
2018-12-09T14:01:37.070Z,5.30
2018-12-09T14:04:05.552Z,8.03
2018-12-09T14:06:34.136Z,6.07
2018-12-09T14:09:02.675Z,13.50
2018-12-09T14:11:31.099Z,12.13
2018-12-09T14:13:59.664Z,9.47
2018-12-09T14:16:28.065Z,9.07
2018-12-09T14:18:56.500Z,10.20
2018-12-09T14:21:25.027Z,5.90
2018-12-09T14:23:53.563Z,3.23
2018-12-09T14:26:21.995Z,7.57
2018-12-09T14:28:50.735Z,6.07
2018-12-09T14:31:19.186Z,7.30
2018-12-09T14:33:47.667Z,5.90
2018-12-09T14:36:16.079Z,6.67
2018-12-09T14:38:44.655Z,3.77
2018-12-09T14:41:13.077Z,7.50
2018-12-09T14:43:41.476Z,5.97
2018-12-09T14:46:09.907Z,9.07
2018-12-09T14:48:38.349Z,7.77
2018-12-09T14:51:06.787Z,10.23
2018-12-09T14:53:35.285Z,6.37
2018-12-09T14:56:03.695Z,12.20
2018-12-09T14:58:32.101Z,9.60
2018-12-09T15:01:00.658Z,9.50
2018-12-09T15:03:29.087Z,8.73
2018-12-09T15:05:57.480Z,9.93
2018-12-09T15:08:26.214Z,10.10
2018-12-09T15:10:54.696Z,5.83
2018-12-09T15:13:23.121Z,9.87
2018-12-09T15:15:51.672Z,6.93
2018-12-09T15:18:20.093Z,11.10
2018-12-09T15:20:48.574Z,11.17
2018-12-09T15:23:16.982Z,8.93
2018-12-09T15:25:45.456Z,9.20
2018-12-09T15:28:13.876Z,8.83
2018-12-09T15:30:42.310Z,12.17
2018-12-09T15:33:10.751Z,10.47
2018-12-09T15:35:39.168Z,10.33
2018-12-09T15:38:07.575Z,12.30
2018-12-09T15:40:35.975Z,12.53
2018-12-09T15:43:04.438Z,12.40
2018-12-09T15:45:32.824Z,9.90
2018-12-09T15:48:01.338Z,11.07
2018-12-09T15:50:29.764Z,8.47
2018-12-09T15:52:58.190Z,9.83
2018-12-09T15:55:26.605Z,15.60
2018-12-09T15:57:55.017Z,10.40
2018-12-09T16:00:25.508Z,9.40
2018-12-09T16:02:53.929Z,16.67
2018-12-09T16:05:22.336Z,9.13
2018-12-09T16:07:50.769Z,10.90
2018-12-09T16:10:19.197Z,10.57
2018-12-09T16:12:47.707Z,12.73
2018-12-09T16:15:16.253Z,12.30
2018-12-09T16:17:44.801Z,8.30
2018-12-09T16:20:13.344Z,11.90
2018-12-09T16:22:41.791Z,12.33
2018-12-09T16:25:10.207Z,11.47
2018-12-09T16:27:38.732Z,13.40
2018-12-09T16:30:08.535Z,10.50
2018-12-09T16:32:36.971Z,11.33
2018-12-09T16:35:07.697Z,8.77
2018-12-09T16:37:36.104Z,11.47
2018-12-09T16:40:04.985Z,13.20
2018-12-09T16:42:33.368Z,13.47
2018-12-09T16:45:01.831Z,9.73
2018-12-09T16:47:30.227Z,10.43
2018-12-09T16:49:58.630Z,10.60
2018-12-09T16:52:27.037Z,8.83
2018-12-09T16:54:55.443Z,9.90
2018-12-09T16:57:23.873Z,16.43
2018-12-09T16:59:52.297Z,9.70
2018-12-09T17:02:20.729Z,11.10
2018-12-09T17:04:49.155Z,13.70
2018-12-09T17:07:17.618Z,10.03
2018-12-09T17:09:46.060Z,11.57
2018-12-09T17:12:14.510Z,15.23
2018-12-09T17:14:42.911Z,7.53
2018-12-09T17:17:11.388Z,10.50
2018-12-09T17:19:39.795Z,8.97
2018-12-09T17:22:08.236Z,10.93
2018-12-09T17:24:36.736Z,6.70
2018-12-09T17:27:05.157Z,11.37
2018-12-09T17:29:33.615Z,8.10
2018-12-09T17:32:02.136Z,7.10
2018-12-09T17:34:30.539Z,11.30
2018-12-09T17:36:59.000Z,14.20
2018-12-09T17:39:27.526Z,13.23
2018-12-09T17:41:55.985Z,9.97
2018-12-09T17:44:24.399Z,9.70
2018-12-09T17:46:52.859Z,9.20
2018-12-09T17:49:21.299Z,13.63
2018-12-09T17:51:49.740Z,11.20
2018-12-09T17:54:18.186Z,10.53
2018-12-09T17:56:46.649Z,13.20
2018-12-09T17:59:15.180Z,10.30
2018-12-09T18:01:43.651Z,11.03
2018-12-09T18:04:12.103Z,12.87
2018-12-09T18:06:40.559Z,11.73
2018-12-09T18:09:09.023Z,12.40
2018-12-09T18:11:37.614Z,11.17
2018-12-09T18:14:06.131Z,10.60
2018-12-09T18:16:34.521Z,7.77
2018-12-09T18:19:03.163Z,11.33
2018-12-09T18:21:31.577Z,11.60
2018-12-09T18:24:00.048Z,7.40
2018-12-09T18:26:28.463Z,10.07
2018-12-09T18:28:56.989Z,10.87
2018-12-09T18:31:25.849Z,10.90
2018-12-09T18:33:54.258Z,12.93
2018-12-09T18:36:22.893Z,12.30
2018-12-09T18:38:51.393Z,9.43
2018-12-09T18:41:19.820Z,11.07
2018-12-09T18:43:48.268Z,12.40
2018-12-09T18:46:16.729Z,10.17
2018-12-09T18:48:45.127Z,10.50
2018-12-09T18:51:13.572Z,9.67
2018-12-09T18:53:42.037Z,8.50
2018-12-09T18:56:10.473Z,8.27
2018-12-09T18:58:38.963Z,8.20
2018-12-09T19:01:07.444Z,11.30
2018-12-09T19:03:35.895Z,10.97
2018-12-09T19:06:04.321Z,8.63
2018-12-09T19:08:38.011Z,7.03
2018-12-09T19:11:06.741Z,6.20
2018-12-09T19:13:35.201Z,9.50
2018-12-09T19:16:03.627Z,10.67
2018-12-09T19:18:32.151Z,5.93
2018-12-09T19:21:00.626Z,10.33
2018-12-09T19:23:29.027Z,11.43
2018-12-09T19:25:57.434Z,5.87
2018-12-09T19:28:25.870Z,7.10
2018-12-09T19:30:54.271Z,10.47
2018-12-09T19:33:22.707Z,5.43
2018-12-09T19:35:51.091Z,8.33
2018-12-09T19:38:19.520Z,11.17
2018-12-09T19:40:47.954Z,9.50
2018-12-09T19:43:16.369Z,8.20
2018-12-09T19:45:44.791Z,9.57
2018-12-09T19:48:13.255Z,9.43
2018-12-09T19:50:41.671Z,12.03
2018-12-09T19:53:10.076Z,8.67
2018-12-09T19:55:38.469Z,13.73
2018-12-09T19:58:06.861Z,11.17
2018-12-09T20:00:35.353Z,11.70
2018-12-09T20:03:03.897Z,11.83
2018-12-09T20:05:32.414Z,12.67
2018-12-09T20:08:01.123Z,5.60
2018-12-09T20:10:29.558Z,15.33
2018-12-09T20:12:57.990Z,10.83
2018-12-09T20:15:26.525Z,9.93
2018-12-09T20:17:54.952Z,13.10
2018-12-09T20:20:23.410Z,9.40
2018-12-09T20:22:51.809Z,8.80
2018-12-09T20:25:20.194Z,12.27
2018-12-09T20:27:48.605Z,9.13
2018-12-09T20:30:17.014Z,7.33
2018-12-09T20:32:45.484Z,11.20
2018-12-09T20:35:13.892Z,5.50
2018-12-09T20:37:42.401Z,15.23
2018-12-09T20:40:10.829Z,11.63
2018-12-09T20:42:39.313Z,15.30
2018-12-09T20:45:09.264Z,12.83
2018-12-09T20:47:37.665Z,9.00
2018-12-09T20:50:06.932Z,13.27
2018-12-09T20:52:35.351Z,11.57
2018-12-09T20:55:04.140Z,10.17
2018-12-09T20:57:32.559Z,8.63
2018-12-09T21:00:01.017Z,9.17
2018-12-09T21:02:29.560Z,15.10
2018-12-09T21:04:57.997Z,9.90
2018-12-09T21:07:26.461Z,11.07
2018-12-09T21:09:54.881Z,9.27
2018-12-09T21:12:24.244Z,10.13
2018-12-09T21:14:52.680Z,10.43
2018-12-09T21:17:21.194Z,12.23
2018-12-09T21:19:49.611Z,13.03
2018-12-09T21:22:18.137Z,15.43
2018-12-09T21:24:46.538Z,15.43
2018-12-09T21:27:15.052Z,15.73
2018-12-09T21:29:43.557Z,10.70
2018-12-09T21:32:11.967Z,9.97
2018-12-09T21:34:40.400Z,6.40
2018-12-09T21:37:08.797Z,11.33
2018-12-09T21:39:37.167Z,11.63
2018-12-09T21:42:05.681Z,12.07
2018-12-09T21:44:34.096Z,11.73
2018-12-09T21:47:02.724Z,7.37
2018-12-09T21:49:31.212Z,7.80
2018-12-09T21:51:59.605Z,11.17
2018-12-09T21:54:28.106Z,15.57
2018-12-09T21:56:56.646Z,5.60
2018-12-09T21:59:25.030Z,8.20
2018-12-09T22:01:53.430Z,5.90
2018-12-09T22:04:21.831Z,7.37
2018-12-09T22:06:50.230Z,9.20
2018-12-09T22:09:18.672Z,7.27
2018-12-09T22:11:47.056Z,10.73
2018-12-09T22:14:15.472Z,13.70
2018-12-09T22:16:43.901Z,5.47
2018-12-09T22:19:12.326Z,7.90
2018-12-09T22:21:40.723Z,6.70
2018-12-09T22:24:09.192Z,6.73
2018-12-09T22:26:37.583Z,13.30
2018-12-09T22:29:05.984Z,8.57
2018-12-09T22:31:34.373Z,7.70
2018-12-09T22:34:02.754Z,8.17
2018-12-09T22:36:31.303Z,8.67
2018-12-09T22:38:59.689Z,8.80
2018-12-09T22:41:28.105Z,5.47
2018-12-09T22:43:56.523Z,11.40
2018-12-09T22:46:24.988Z,11.63
2018-12-09T22:48:53.388Z,13.23
2018-12-09T22:51:21.786Z,17.17
2018-12-09T22:53:50.187Z,13.13
2018-12-09T22:56:18.803Z,19.57
2018-12-09T22:58:47.201Z,10.47
2018-12-09T23:01:19.195Z,13.20
2018-12-09T23:03:47.948Z,11.33
2018-12-09T23:06:16.329Z,13.27
2018-12-09T23:08:44.820Z,19.10
2018-12-09T23:11:13.284Z,18.47
2018-12-09T23:13:41.781Z,18.70
2018-12-09T23:16:10.198Z,14.23
2018-12-09T23:18:38.591Z,11.90
2018-12-09T23:21:07.047Z,16.07
2018-12-09T23:23:35.437Z,21.27
2018-12-09T23:26:03.853Z,11.90
2018-12-09T23:28:32.319Z,15.17
2018-12-09T23:31:00.719Z,8.33
2018-12-09T23:33:29.283Z,12.67
2018-12-09T23:35:57.684Z,19.23
2018-12-09T23:38:26.169Z,15.47
2018-12-09T23:40:54.586Z,13.50
2018-12-09T23:43:23.007Z,13.00
2018-12-09T23:45:51.413Z,13.70
2018-12-09T23:48:19.983Z,11.90
2018-12-09T23:50:48.487Z,12.67
2018-12-09T23:53:16.908Z,13.40
2018-12-09T23:55:45.314Z,10.03
2018-12-09T23:58:13.772Z,11.80
